sensor_id;sensor_type;location;lat;lon;timestamp;pressure;altitude;pressure_sealevel;temperature;humidity
61035;BME280;46916;40.564;-7.958;2022-08-21T00:00:39;97672.44;;;24.29;48.99
61035;BME280;46916;40.564;-7.958;2022-08-21T00:02:46;97675.72;;;24.31;48.69
61035;BME280;46916;40.564;-7.958;2022-08-21T00:04:49;97668.50;;;24.32;48.70
61035;BME280;46916;40.564;-7.958;2022-08-21T00:06:51;97665.88;;;24.25;48.87
61035;BME280;46916;40.564;-7.958;2022-08-21T00:08:52;97670.59;;;24.23;48.87
61035;BME280;46916;40.564;-7.958;2022-08-21T00:10:53;97675.72;;;24.25;48.81
61035;BME280;46916;40.564;-7.958;2022-08-21T00:12:54;97673.69;;;24.27;48.72
61035;BME280;46916;40.564;-7.958;2022-08-21T00:14:55;97668.34;;;24.27;48.60
61035;BME280;46916;40.564;-7.958;2022-08-21T00:16:55;97673.28;;;24.23;48.59
61035;BME280;46916;40.564;-7.958;2022-08-21T00:18:56;97674.72;;;24.19;48.95
61035;BME280;46916;40.564;-7.958;2022-08-21T00:20:57;97669.59;;;24.17;48.86
61035;BME280;46916;40.564;-7.958;2022-08-21T00:22:57;97673.28;;;24.16;48.92
61035;BME280;46916;40.564;-7.958;2022-08-21T00:24:58;97668.56;;;24.12;49.09
61035;BME280;46916;40.564;-7.958;2022-08-21T00:26:59;97666.53;;;24.07;49.04
61035;BME280;46916;40.564;-7.958;2022-08-21T00:28:59;97670.47;;;24.05;49.09
61035;BME280;46916;40.564;-7.958;2022-08-21T00:31:00;97668.38;;;24.00;49.35
61035;BME280;46916;40.564;-7.958;2022-08-21T00:33:04;97668.84;;;23.97;49.36
61035;BME280;46916;40.564;-7.958;2022-08-21T00:35:08;97672.31;;;23.97;49.64
61035;BME280;46916;40.564;-7.958;2022-08-21T00:37:09;97680.13;;;23.99;49.54
61035;BME280;46916;40.564;-7.958;2022-08-21T00:39:10;97684.44;;;24.00;49.54
61035;BME280;46916;40.564;-7.958;2022-08-21T00:41:11;97681.56;;;24.02;49.15
61035;BME280;46916;40.564;-7.958;2022-08-21T00:43:15;97675.19;;;24.03;49.49
61035;BME280;46916;40.564;-7.958;2022-08-21T00:45:16;97675.19;;;24.03;49.55
61035;BME280;46916;40.564;-7.958;2022-08-21T00:47:18;97673.56;;;24.02;49.59
61035;BME280;46916;40.564;-7.958;2022-08-21T00:49:18;97673.56;;;24.02;49.29
61035;BME280;46916;40.564;-7.958;2022-08-21T00:51:24;97663.25;;;23.98;49.60
61035;BME280;46916;40.564;-7.958;2022-08-21T00:53:27;97658.53;;;23.94;49.74
61035;BME280;46916;40.564;-7.958;2022-08-21T00:55:29;97654.41;;;23.91;49.57
61035;BME280;46916;40.564;-7.958;2022-08-21T00:57:36;97656.69;;;23.88;49.86
61035;BME280;46916;40.564;-7.958;2022-08-21T00:59:38;97660.81;;;23.84;49.91
61035;BME280;46916;40.564;-7.958;2022-08-21T01:01:40;97661.88;;;23.76;50.33
61035;BME280;46916;40.564;-7.958;2022-08-21T01:03:41;97661.47;;;23.72;50.10
61035;BME280;46916;40.564;-7.958;2022-08-21T01:05:42;97659.19;;;23.69;50.00
61035;BME280;46916;40.564;-7.958;2022-08-21T01:07:43;97657.13;;;23.65;50.11
61035;BME280;46916;40.564;-7.958;2022-08-21T01:09:48;97667.41;;;23.61;50.25
61035;BME280;46916;40.564;-7.958;2022-08-21T01:11:49;97662.28;;;23.60;50.32
61035;BME280;46916;40.564;-7.958;2022-08-21T01:13:50;97664.31;;;23.58;50.19
61035;BME280;46916;40.564;-7.958;2022-08-21T01:15:54;97661.03;;;23.56;50.41
61035;BME280;46916;40.564;-7.958;2022-08-21T01:17:55;97655.06;;;23.54;50.27
61035;BME280;46916;40.564;-7.958;2022-08-21T01:20:01;97658.78;;;23.53;50.28
61035;BME280;46916;40.564;-7.958;2022-08-21T01:22:02;97661.84;;;23.49;50.42
61035;BME280;46916;40.564;-7.958;2022-08-21T01:24:03;97662.47;;;23.45;50.33
61035;BME280;46916;40.564;-7.958;2022-08-21T01:26:05;97655.09;;;23.40;50.25
61035;BME280;46916;40.564;-7.958;2022-08-21T01:28:13;97664.53;;;23.36;50.50
61035;BME280;46916;40.564;-7.958;2022-08-21T01:30:18;97660.41;;;23.34;50.53
61035;BME280;46916;40.564;-7.958;2022-08-21T01:32:20;97657.97;;;23.32;50.38
61035;BME280;46916;40.564;-7.958;2022-08-21T01:34:21;97663.31;;;23.32;50.09
61035;BME280;46916;40.564;-7.958;2022-08-21T01:36:22;97660.22;;;23.35;49.88
61035;BME280;46916;40.564;-7.958;2022-08-21T01:38:23;97653.84;;;23.36;49.74
61035;BME280;46916;40.564;-7.958;2022-08-21T01:40:24;97653.63;;;23.38;49.57
61035;BME280;46916;40.564;-7.958;2022-08-21T01:42:25;97646.88;;;23.35;49.83
61035;BME280;46916;40.564;-7.958;2022-08-21T01:44:26;97649.72;;;23.34;49.53
61035;BME280;46916;40.564;-7.958;2022-08-21T01:46:28;97652.63;;;23.32;49.58
61035;BME280;46916;40.564;-7.958;2022-08-21T01:48:28;97645.63;;;23.24;49.39
61035;BME280;46916;40.564;-7.958;2022-08-21T01:50:29;97656.72;;;23.21;49.73
61035;BME280;46916;40.564;-7.958;2022-08-21T01:52:30;97650.13;;;23.17;49.67
61035;BME280;46916;40.564;-7.958;2022-08-21T01:54:31;97662.88;;;23.15;50.00
61035;BME280;46916;40.564;-7.958;2022-08-21T01:56:40;97656.72;;;23.15;49.93
61035;BME280;46916;40.564;-7.958;2022-08-21T01:58:45;97661.63;;;23.18;49.76
61035;BME280;46916;40.564;-7.958;2022-08-21T02:00:45;97654.66;;;23.17;49.87
61035;BME280;46916;40.564;-7.958;2022-08-21T02:02:53;97656.50;;;23.16;50.29
61035;BME280;46916;40.564;-7.958;2022-08-21T02:04:54;97657.72;;;23.14;50.27
61035;BME280;46916;40.564;-7.958;2022-08-21T02:06:55;97653.81;;;23.10;50.25
61035;BME280;46916;40.564;-7.958;2022-08-21T02:08:55;97661.63;;;23.05;49.91
61035;BME280;46916;40.564;-7.958;2022-08-21T02:10:56;97664.50;;;22.96;50.24
61035;BME280;46916;40.564;-7.958;2022-08-21T02:12:58;97665.03;;;22.85;50.32
61035;BME280;46916;40.564;-7.958;2022-08-21T02:15:00;97671.00;;;22.74;50.20
61035;BME280;46916;40.564;-7.958;2022-08-21T02:17:01;97668.06;;;22.69;49.73
61035;BME280;46916;40.564;-7.958;2022-08-21T02:19:02;97660.69;;;22.64;49.81
61035;BME280;46916;40.564;-7.958;2022-08-21T02:21:05;97668.69;;;22.58;49.74
61035;BME280;46916;40.564;-7.958;2022-08-21T02:23:07;97663.75;;;22.55;49.99
61035;BME280;46916;40.564;-7.958;2022-08-21T02:25:08;97669.47;;;22.52;49.76
61035;BME280;46916;40.564;-7.958;2022-08-21T02:27:09;97660.22;;;22.47;50.10
61035;BME280;46916;40.564;-7.958;2022-08-21T02:29:09;97666.38;;;22.41;50.23
61035;BME280;46916;40.564;-7.958;2022-08-21T02:31:10;97662.22;;;22.39;50.59
61035;BME280;46916;40.564;-7.958;2022-08-21T02:33:11;97667.16;;;22.35;50.85
61035;BME280;46916;40.564;-7.958;2022-08-21T02:35:13;97662.41;;;22.31;51.87
61035;BME280;46916;40.564;-7.958;2022-08-21T02:37:14;97657.66;;;22.26;51.91
61035;BME280;46916;40.564;-7.958;2022-08-21T02:39:14;97661.38;;;22.25;51.84
61035;BME280;46916;40.564;-7.958;2022-08-21T02:41:17;97658.25;;;22.21;52.34
61035;BME280;46916;40.564;-7.958;2022-08-21T02:43:20;97661.94;;;22.20;52.10
61035;BME280;46916;40.564;-7.958;2022-08-21T02:45:21;97662.75;;;22.14;51.75
61035;BME280;46916;40.564;-7.958;2022-08-21T02:47:22;97664.72;;;22.12;51.38
61035;BME280;46916;40.564;-7.958;2022-08-21T02:49:23;97663.09;;;22.11;50.93
61035;BME280;46916;40.564;-7.958;2022-08-21T02:51:24;97662.66;;;22.08;50.92
61035;BME280;46916;40.564;-7.958;2022-08-21T02:53:26;97664.72;;;22.06;50.88
61035;BME280;46916;40.564;-7.958;2022-08-21T02:55:30;97663.25;;;21.96;50.85
61035;BME280;46916;40.564;-7.958;2022-08-21T02:57:32;97666.66;;;21.90;50.70
61035;BME280;46916;40.564;-7.958;2022-08-21T02:59:32;97665.41;;;21.86;51.01
61035;BME280;46916;40.564;-7.958;2022-08-21T03:01:33;97664.16;;;21.82;51.54
61035;BME280;46916;40.564;-7.958;2022-08-21T03:03:34;97671.09;;;21.76;51.78
61035;BME280;46916;40.564;-7.958;2022-08-21T03:05:36;97668.00;;;21.73;52.24
61035;BME280;46916;40.564;-7.958;2022-08-21T03:07:37;97674.53;;;21.70;53.38
61035;BME280;46916;40.564;-7.958;2022-08-21T03:09:39;97672.69;;;21.71;52.93
61035;BME280;46916;40.564;-7.958;2022-08-21T03:11:40;97676.59;;;21.68;53.19
61035;BME280;46916;40.564;-7.958;2022-08-21T03:13:41;97681.91;;;21.68;52.97
61035;BME280;46916;40.564;-7.958;2022-08-21T03:15:42;97673.66;;;21.63;53.50
61035;BME280;46916;40.564;-7.958;2022-08-21T03:17:44;97677.56;;;21.61;53.31
61035;BME280;46916;40.564;-7.958;2022-08-21T03:19:46;97667.72;;;21.61;53.64
61035;BME280;46916;40.564;-7.958;2022-08-21T03:21:47;97671.00;;;21.63;53.76
61035;BME280;46916;40.564;-7.958;2022-08-21T03:23:47;97666.06;;;21.60;53.90
61035;BME280;46916;40.564;-7.958;2022-08-21T03:25:48;97671.56;;;21.59;53.80
61035;BME280;46916;40.564;-7.958;2022-08-21T03:27:51;97673.19;;;21.53;54.17
61035;BME280;46916;40.564;-7.958;2022-08-21T03:29:53;97670.06;;;21.49;54.36
61035;BME280;46916;40.564;-7.958;2022-08-21T03:31:53;97665.53;;;21.43;54.38
61035;BME280;46916;40.564;-7.958;2022-08-21T03:33:54;97664.28;;;21.39;54.47
61035;BME280;46916;40.564;-7.958;2022-08-21T03:36:08;97662.59;;;21.38;54.53
61035;BME280;46916;40.564;-7.958;2022-08-21T03:38:09;97660.97;;;21.37;54.81
61035;BME280;46916;40.564;-7.958;2022-08-21T03:40:12;97671.63;;;21.37;54.46
61035;BME280;46916;40.564;-7.958;2022-08-21T03:42:12;97664.81;;;21.35;54.74
61035;BME280;46916;40.564;-7.958;2022-08-21T03:44:13;97658.06;;;21.32;54.53
61035;BME280;46916;40.564;-7.958;2022-08-21T03:46:14;97663.38;;;21.32;54.68
61035;BME280;46916;40.564;-7.958;2022-08-21T03:48:15;97666.66;;;21.34;54.08
61035;BME280;46916;40.564;-7.958;2022-08-21T03:50:15;97669.31;;;21.34;53.70
61035;BME280;46916;40.564;-7.958;2022-08-21T03:52:17;97660.72;;;21.32;53.20
61035;BME280;46916;40.564;-7.958;2022-08-21T03:54:18;97662.09;;;21.28;53.00
61035;BME280;46916;40.564;-7.958;2022-08-21T03:56:19;97670.69;;;21.30;53.34
61035;BME280;46916;40.564;-7.958;2022-08-21T03:58:23;97666.31;;;21.22;52.91
61035;BME280;46916;40.564;-7.958;2022-08-21T04:00:25;97663.38;;;21.11;53.07
61035;BME280;46916;40.564;-7.958;2022-08-21T04:02:25;97663.91;;;21.06;53.00
61035;BME280;46916;40.564;-7.958;2022-08-21T04:04:28;97655.94;;;21.06;52.36
61035;BME280;46916;40.564;-7.958;2022-08-21T04:06:29;97660.63;;;21.04;52.65
61035;BME280;46916;40.564;-7.958;2022-08-21T04:08:29;97656.13;;;21.05;52.55
61035;BME280;46916;40.564;-7.958;2022-08-21T04:10:33;97657.16;;;21.03;52.44
61035;BME280;46916;40.564;-7.958;2022-08-21T04:12:34;97658.72;;;20.98;52.41
61035;BME280;46916;40.564;-7.958;2022-08-21T04:14:35;97662.97;;;20.92;52.11
61035;BME280;46916;40.564;-7.958;2022-08-21T04:16:36;97660.13;;;20.94;52.07
61035;BME280;46916;40.564;-7.958;2022-08-21T04:18:36;97664.81;;;20.92;52.15
61035;BME280;46916;40.564;-7.958;2022-08-21T04:20:37;97659.41;;;20.85;52.55
61035;BME280;46916;40.564;-7.958;2022-08-21T04:22:39;97661.91;;;20.87;52.71
61035;BME280;46916;40.564;-7.958;2022-08-21T04:24:39;97652.81;;;20.81;53.15
61035;BME280;46916;40.564;-7.958;2022-08-21T04:26:40;97654.66;;;20.81;53.32
61035;BME280;46916;40.564;-7.958;2022-08-21T04:28:41;97652.22;;;20.79;53.92
61035;BME280;46916;40.564;-7.958;2022-08-21T04:30:41;97645.59;;;20.75;53.97
61035;BME280;46916;40.564;-7.958;2022-08-21T04:32:47;97653.59;;;20.75;54.51
61035;BME280;46916;40.564;-7.958;2022-08-21T04:34:48;97646.81;;;20.72;54.96
61035;BME280;46916;40.564;-7.958;2022-08-21T04:36:49;97652.31;;;20.71;54.58
61035;BME280;46916;40.564;-7.958;2022-08-21T04:38:49;97654.72;;;20.66;55.15
61035;BME280;46916;40.564;-7.958;2022-08-21T04:40:51;97654.28;;;20.62;54.96
61035;BME280;46916;40.564;-7.958;2022-08-21T04:43:00;97648.97;;;20.62;54.89
61035;BME280;46916;40.564;-7.958;2022-08-21T04:45:01;97656.13;;;20.62;54.78
61035;BME280;46916;40.564;-7.958;2022-08-21T04:47:01;97652.59;;;20.61;54.79
61035;BME280;46916;40.564;-7.958;2022-08-21T04:49:03;97654.28;;;20.62;54.78
61035;BME280;46916;40.564;-7.958;2022-08-21T04:51:13;97656.94;;;20.62;54.60
61035;BME280;46916;40.564;-7.958;2022-08-21T04:53:20;97657.75;;;20.63;54.48
61035;BME280;46916;40.564;-7.958;2022-08-21T04:55:22;97656.50;;;20.59;54.71
61035;BME280;46916;40.564;-7.958;2022-08-21T04:57:24;97658.50;;;20.57;54.64
61035;BME280;46916;40.564;-7.958;2022-08-21T04:59:30;97660.28;;;20.49;54.94
61035;BME280;46916;40.564;-7.958;2022-08-21T05:01:35;97658.31;;;20.43;55.42
61035;BME280;46916;40.564;-7.958;2022-08-21T05:03:38;97651.97;;;20.44;55.38
61035;BME280;46916;40.564;-7.958;2022-08-21T05:05:39;97651.81;;;20.46;55.35
61035;BME280;46916;40.564;-7.958;2022-08-21T05:07:42;97649.97;;;20.46;55.21
61035;BME280;46916;40.564;-7.958;2022-08-21T05:09:45;97648.94;;;20.47;55.61
61035;BME280;46916;40.564;-7.958;2022-08-21T05:11:45;97652.44;;;20.48;55.39
61035;BME280;46916;40.564;-7.958;2022-08-21T05:13:46;97648.34;;;20.45;55.25
61035;BME280;46916;40.564;-7.958;2022-08-21T05:15:47;97655.84;;;20.42;55.58
61035;BME280;46916;40.564;-7.958;2022-08-21T05:17:48;97659.91;;;20.38;55.40
61035;BME280;46916;40.564;-7.958;2022-08-21T05:19:50;97665.78;;;20.33;55.57
61035;BME280;46916;40.564;-7.958;2022-08-21T05:21:51;97661.44;;;20.32;55.33
61035;BME280;46916;40.564;-7.958;2022-08-21T05:23:52;97668.59;;;20.32;55.47
61035;BME280;46916;40.564;-7.958;2022-08-21T05:25:53;97671.28;;;20.32;55.60
61035;BME280;46916;40.564;-7.958;2022-08-21T05:27:54;97670.81;;;20.28;55.82
61035;BME280;46916;40.564;-7.958;2022-08-21T05:29:54;97675.50;;;20.26;55.76
61035;BME280;46916;40.564;-7.958;2022-08-21T05:31:55;97671.72;;;20.20;55.73
61035;BME280;46916;40.564;-7.958;2022-08-21T05:33:56;97669.06;;;20.20;55.18
61035;BME280;46916;40.564;-7.958;2022-08-21T05:35:57;97667.25;;;20.21;54.92
61035;BME280;46916;40.564;-7.958;2022-08-21T05:37:58;97672.13;;;20.17;54.87
61035;BME280;46916;40.564;-7.958;2022-08-21T05:40:00;97673.03;;;20.10;55.54
61035;BME280;46916;40.564;-7.958;2022-08-21T05:42:00;97673.41;;;20.07;55.72
61035;BME280;46916;40.564;-7.958;2022-08-21T05:44:01;97672.56;;;20.06;55.95
61035;BME280;46916;40.564;-7.958;2022-08-21T05:46:03;97683.00;;;20.08;56.22
61035;BME280;46916;40.564;-7.958;2022-08-21T05:48:12;97678.53;;;20.08;56.13
61035;BME280;46916;40.564;-7.958;2022-08-21T05:50:13;97680.34;;;20.08;56.08
61035;BME280;46916;40.564;-7.958;2022-08-21T05:52:19;97675.44;;;20.04;55.92
61035;BME280;46916;40.564;-7.958;2022-08-21T05:54:20;97678.09;;;20.04;55.80
61035;BME280;46916;40.564;-7.958;2022-08-21T05:56:20;97670.94;;;20.05;55.66
61035;BME280;46916;40.564;-7.958;2022-08-21T05:58:21;97683.41;;;20.04;55.49
61035;BME280;46916;40.564;-7.958;2022-08-21T06:00:23;97676.88;;;20.07;55.46
61035;BME280;46916;40.564;-7.958;2022-08-21T06:02:23;97681.38;;;20.07;55.59
61035;BME280;46916;40.564;-7.958;2022-08-21T06:04:24;97682.19;;;20.07;55.19
61035;BME280;46916;40.564;-7.958;2022-08-21T06:06:25;97683.66;;;20.10;55.32
61035;BME280;46916;40.564;-7.958;2022-08-21T06:08:26;97687.50;;;20.07;55.62
61035;BME280;46916;40.564;-7.958;2022-08-21T06:10:26;97688.72;;;20.04;55.76
61035;BME280;46916;40.564;-7.958;2022-08-21T06:12:27;97689.53;;;20.05;55.84
61035;BME280;46916;40.564;-7.958;2022-08-21T06:14:28;97692.81;;;20.07;55.54
61035;BME280;46916;40.564;-7.958;2022-08-21T06:16:28;97690.38;;;20.06;55.26
61035;BME280;46916;40.564;-7.958;2022-08-21T06:18:29;97696.22;;;20.01;55.26
61035;BME280;46916;40.564;-7.958;2022-08-21T06:20:30;97701.09;;;19.97;55.29
61035;BME280;46916;40.564;-7.958;2022-08-21T06:22:32;97704.47;;;19.91;55.09
61035;BME280;46916;40.564;-7.958;2022-08-21T06:24:32;97700.72;;;19.86;54.96
61035;BME280;46916;40.564;-7.958;2022-08-21T06:26:33;97702.34;;;19.87;55.10
61035;BME280;46916;40.564;-7.958;2022-08-21T06:28:35;97708.31;;;19.89;55.51
61035;BME280;46916;40.564;-7.958;2022-08-21T06:30:38;97709.78;;;19.91;55.67
61035;BME280;46916;40.564;-7.958;2022-08-21T06:32:39;97715.09;;;19.91;55.84
61035;BME280;46916;40.564;-7.958;2022-08-21T06:34:41;97712.81;;;19.88;55.96
61035;BME280;46916;40.564;-7.958;2022-08-21T06:36:42;97719.88;;;19.81;56.54
61035;BME280;46916;40.564;-7.958;2022-08-21T06:38:42;97721.84;;;19.79;56.85
61035;BME280;46916;40.564;-7.958;2022-08-21T06:40:43;97722.25;;;19.76;57.47
61035;BME280;46916;40.564;-7.958;2022-08-21T06:42:44;97717.28;;;19.73;57.83
61035;BME280;46916;40.564;-7.958;2022-08-21T06:44:44;97716.81;;;19.69;58.20
61035;BME280;46916;40.564;-7.958;2022-08-21T06:46:45;97716.34;;;19.66;58.75
61035;BME280;46916;40.564;-7.958;2022-08-21T06:48:46;97712.41;;;19.62;58.44
61035;BME280;46916;40.564;-7.958;2022-08-21T06:50:47;97711.06;;;19.58;58.83
61035;BME280;46916;40.564;-7.958;2022-08-21T06:52:48;97725.09;;;19.51;58.96
61035;BME280;46916;40.564;-7.958;2022-08-21T06:54:48;97724.16;;;19.44;59.54
61035;BME280;46916;40.564;-7.958;2022-08-21T06:56:49;97723.47;;;19.42;59.87
61035;BME280;46916;40.564;-7.958;2022-08-21T06:58:50;97717.19;;;19.43;60.29
61035;BME280;46916;40.564;-7.958;2022-08-21T07:00:51;97715.16;;;19.45;60.58
61035;BME280;46916;40.564;-7.958;2022-08-21T07:02:52;97714.81;;;19.48;61.22
61035;BME280;46916;40.564;-7.958;2022-08-21T07:04:52;97725.53;;;19.55;60.81
61035;BME280;46916;40.564;-7.958;2022-08-21T07:06:53;97731.84;;;19.54;60.82
61035;BME280;46916;40.564;-7.958;2022-08-21T07:08:54;97731.84;;;19.54;60.80
61035;BME280;46916;40.564;-7.958;2022-08-21T07:10:58;97730.03;;;19.54;61.14
61035;BME280;46916;40.564;-7.958;2022-08-21T07:12:59;97732.31;;;19.58;61.80
61035;BME280;46916;40.564;-7.958;2022-08-21T07:15:00;97739.94;;;19.61;61.54
61035;BME280;46916;40.564;-7.958;2022-08-21T07:17:01;97742.09;;;19.65;61.33
61035;BME280;46916;40.564;-7.958;2022-08-21T07:19:02;97745.22;;;19.69;61.57
61035;BME280;46916;40.564;-7.958;2022-08-21T07:21:05;97742.38;;;19.70;61.29
61035;BME280;46916;40.564;-7.958;2022-08-21T07:23:09;97749.16;;;19.73;60.96
61035;BME280;46916;40.564;-7.958;2022-08-21T07:25:11;97746.03;;;19.69;60.56
61035;BME280;46916;40.564;-7.958;2022-08-21T07:27:12;97753.66;;;19.72;60.36
61035;BME280;46916;40.564;-7.958;2022-08-21T07:29:13;97749.63;;;19.76;60.53
61035;BME280;46916;40.564;-7.958;2022-08-21T07:31:17;97747.63;;;19.78;60.70
61035;BME280;46916;40.564;-7.958;2022-08-21T07:33:18;97753.41;;;19.82;61.09
61035;BME280;46916;40.564;-7.958;2022-08-21T07:35:19;97762.47;;;19.88;60.69
61035;BME280;46916;40.564;-7.958;2022-08-21T07:37:20;97754.34;;;19.89;60.96
61035;BME280;46916;40.564;-7.958;2022-08-21T07:39:21;97758.28;;;19.93;60.77
61035;BME280;46916;40.564;-7.958;2022-08-21T07:41:24;97761.03;;;20.00;60.66
61035;BME280;46916;40.564;-7.958;2022-08-21T07:43:26;97758.84;;;20.03;60.76
61035;BME280;46916;40.564;-7.958;2022-08-21T07:45:27;97749.22;;;20.02;60.72
61035;BME280;46916;40.564;-7.958;2022-08-21T07:47:27;97753.91;;;20.00;60.90
61035;BME280;46916;40.564;-7.958;2022-08-21T07:49:29;97751.88;;;20.02;60.77
61035;BME280;46916;40.564;-7.958;2022-08-21T07:51:29;97755.19;;;20.04;60.59
61035;BME280;46916;40.564;-7.958;2022-08-21T07:53:30;97758.66;;;20.05;60.63
61035;BME280;46916;40.564;-7.958;2022-08-21T07:55:31;97754.34;;;20.04;60.90
61035;BME280;46916;40.564;-7.958;2022-08-21T07:57:31;97755.81;;;20.07;60.82
61035;BME280;46916;40.564;-7.958;2022-08-21T07:59:32;97759.31;;;20.07;60.72
61035;BME280;46916;40.564;-7.958;2022-08-21T08:01:33;97755.47;;;20.10;60.77
61035;BME280;46916;40.564;-7.958;2022-08-21T08:03:34;97755.94;;;20.13;60.51
61035;BME280;46916;40.564;-7.958;2022-08-21T08:05:34;97759.41;;;20.14;60.53
61035;BME280;46916;40.564;-7.958;2022-08-21T08:07:38;97750.41;;;20.15;60.83
61035;BME280;46916;40.564;-7.958;2022-08-21T08:09:39;97758.38;;;20.15;60.79
61035;BME280;46916;40.564;-7.958;2022-08-21T08:11:42;97754.63;;;20.09;61.11
61035;BME280;46916;40.564;-7.958;2022-08-21T08:13:46;97759.75;;;20.11;61.21
61035;BME280;46916;40.564;-7.958;2022-08-21T08:15:47;97752.25;;;20.14;61.16
61035;BME280;46916;40.564;-7.958;2022-08-21T08:17:48;97755.94;;;20.13;61.32
61035;BME280;46916;40.564;-7.958;2022-08-21T08:19:50;97751.16;;;20.09;61.47
61035;BME280;46916;40.564;-7.958;2022-08-21T08:21:50;97756.28;;;20.10;62.16
61035;BME280;46916;40.564;-7.958;2022-08-21T08:23:51;97760.84;;;20.16;61.47
61035;BME280;46916;40.564;-7.958;2022-08-21T08:25:52;97759.69;;;20.19;61.66
61035;BME280;46916;40.564;-7.958;2022-08-21T08:27:53;97761.63;;;20.25;61.53
61035;BME280;46916;40.564;-7.958;2022-08-21T08:29:54;97756.22;;;20.33;61.50
61035;BME280;46916;40.564;-7.958;2022-08-21T08:31:54;97764.91;;;20.42;61.50
61035;BME280;46916;40.564;-7.958;2022-08-21T08:33:55;97765.84;;;20.49;62.12
61035;BME280;46916;40.564;-7.958;2022-08-21T08:35:56;97761.44;;;20.56;61.66
61035;BME280;46916;40.564;-7.958;2022-08-21T08:37:57;97764.81;;;20.65;61.68
61035;BME280;46916;40.564;-7.958;2022-08-21T08:39:57;97768.41;;;20.72;60.91
61035;BME280;46916;40.564;-7.958;2022-08-21T08:42:16;97760.41;;;20.72;60.98
61035;BME280;46916;40.564;-7.958;2022-08-21T08:44:18;97769.22;;;20.72;61.06
61035;BME280;46916;40.564;-7.958;2022-08-21T08:46:33;97761.91;;;20.74;60.83
61035;BME280;46916;40.564;-7.958;2022-08-21T08:51:24;97758.94;;;20.69;61.13
61035;BME280;46916;40.564;-7.958;2022-08-21T08:53:32;97759.97;;;20.68;61.33
61035;BME280;46916;40.564;-7.958;2022-08-21T08:55:42;97762.06;;;20.73;61.65
61035;BME280;46916;40.564;-7.958;2022-08-21T08:57:46;97767.84;;;20.76;61.61
61035;BME280;46916;40.564;-7.958;2022-08-21T08:59:50;97766.00;;;20.77;61.46
61035;BME280;46916;40.564;-7.958;2022-08-21T09:01:52;97765.38;;;20.75;61.53
61035;BME280;46916;40.564;-7.958;2022-08-21T09:03:53;97763.34;;;20.77;61.60
61035;BME280;46916;40.564;-7.958;2022-08-21T09:08:50;97766.28;;;20.82;61.16
61035;BME280;46916;40.564;-7.958;2022-08-21T09:11:07;97765.06;;;20.85;61.86
61035;BME280;46916;40.564;-7.958;2022-08-21T09:13:21;97770.50;;;20.91;61.58
61035;BME280;46916;40.564;-7.958;2022-08-21T09:15:39;97764.84;;;21.01;61.43
61035;BME280;46916;40.564;-7.958;2022-08-21T09:21:04;97755.00;;;21.16;61.21
61035;BME280;46916;40.564;-7.958;2022-08-21T09:23:22;97760.13;;;21.18;60.77
61035;BME280;46916;40.564;-7.958;2022-08-21T09:25:30;97762.91;;;21.10;61.43
61035;BME280;46916;40.564;-7.958;2022-08-21T09:27:33;97767.97;;;21.05;61.33
61035;BME280;46916;40.564;-7.958;2022-08-21T09:29:43;97760.88;;;20.90;62.12
61035;BME280;46916;40.564;-7.958;2022-08-21T09:31:44;97763.88;;;20.87;62.12
61035;BME280;46916;40.564;-7.958;2022-08-21T09:33:45;97765.06;;;20.85;62.14
61035;BME280;46916;40.564;-7.958;2022-08-21T09:35:54;97769.66;;;20.91;62.01
61035;BME280;46916;40.564;-7.958;2022-08-21T09:38:06;97780.78;;;20.94;61.95
61035;BME280;46916;40.564;-7.958;2022-08-21T09:42:29;97774.22;;;20.97;62.21
61035;BME280;46916;40.564;-7.958;2022-08-21T09:44:35;97773.94;;;21.07;61.89
61035;BME280;46916;40.564;-7.958;2022-08-21T09:46:50;97778.88;;;21.10;61.81
61035;BME280;46916;40.564;-7.958;2022-08-21T09:48:53;97784.84;;;21.12;62.46
61035;BME280;46916;40.564;-7.958;2022-08-21T09:51:06;97781.06;;;21.21;61.91
61035;BME280;46916;40.564;-7.958;2022-08-21T09:53:20;97779.47;;;21.26;61.74
61035;BME280;46916;40.564;-7.958;2022-08-21T09:55:46;97782.97;;;21.27;61.41
61035;BME280;46916;40.564;-7.958;2022-08-21T09:58:07;97782.78;;;21.28;61.73
61035;BME280;46916;40.564;-7.958;2022-08-21T10:00:24;97783.97;;;21.26;61.53
61035;BME280;46916;40.564;-7.958;2022-08-21T10:02:33;97771.59;;;21.18;61.89
61035;BME280;46916;40.564;-7.958;2022-08-21T10:04:35;97772.44;;;21.19;62.29
61035;BME280;46916;40.564;-7.958;2022-08-21T10:06:36;97768.00;;;21.26;61.75
61035;BME280;46916;40.564;-7.958;2022-08-21T10:08:39;97773.97;;;21.28;62.06
61035;BME280;46916;40.564;-7.958;2022-08-21T10:10:40;97768.63;;;21.28;62.35
61035;BME280;46916;40.564;-7.958;2022-08-21T10:13:13;97767.41;;;21.31;62.04
61035;BME280;46916;40.564;-7.958;2022-08-21T10:15:51;97768.44;;;21.30;62.41
61035;BME280;46916;40.564;-7.958;2022-08-21T10:18:13;97768.56;;;21.36;61.80
61035;BME280;46916;40.564;-7.958;2022-08-21T10:20:25;97758.97;;;21.42;61.42
61035;BME280;46916;40.564;-7.958;2022-08-21T10:25:27;97767.66;;;21.50;61.19
61035;BME280;46916;40.564;-7.958;2022-08-21T10:27:34;97768.16;;;21.61;61.09
61035;BME280;46916;40.564;-7.958;2022-08-21T10:36:13;97761.69;;;21.98;60.10
61035;BME280;46916;40.564;-7.958;2022-08-21T10:40:37;97753.09;;;22.02;59.53
61035;BME280;46916;40.564;-7.958;2022-08-21T10:43:05;97751.38;;;22.16;59.30
61035;BME280;46916;40.564;-7.958;2022-08-21T10:47:47;97747.56;;;22.32;58.60
61035;BME280;46916;40.564;-7.958;2022-08-21T10:52:36;97740.28;;;22.47;58.43
61035;BME280;46916;40.564;-7.958;2022-08-21T10:54:52;97744.41;;;22.57;57.75
61035;BME280;46916;40.564;-7.958;2022-08-21T10:57:04;97746.09;;;22.64;57.84
61035;BME280;46916;40.564;-7.958;2022-08-21T11:03:51;97729.31;;;22.77;57.25
61035;BME280;46916;40.564;-7.958;2022-08-21T11:05:59;97726.88;;;22.82;57.58
61035;BME280;46916;40.564;-7.958;2022-08-21T11:10:26;97727.97;;;22.94;56.63
61035;BME280;46916;40.564;-7.958;2022-08-21T11:12:45;97718.94;;;23.02;56.26
61035;BME280;46916;40.564;-7.958;2022-08-21T11:14:58;97713.19;;;23.05;56.30
61035;BME280;46916;40.564;-7.958;2022-08-21T11:17:07;97716.09;;;23.17;55.88
61035;BME280;46916;40.564;-7.958;2022-08-21T11:19:15;97715.50;;;23.28;55.89